Time;durP1;ratioP1;P1;durP2;ratioP2;P2;SDS_P1;SDS_P2;PMS_P1;PMS_P2;Temp;Humidity;BMP_temperature;BMP_pressure;BME280_temperature;BME280_humidity;BME280_pressure;Samples;Min_cycle;Max_cycle;Signal;HPM_P1;HPM_P2
2023/04/04 00:00:42;;;;;;;3.47;2.30;;;3.60;99.90;;;;;;4987986;28;20681;-84
2023/04/04 00:03:20;;;;;;;5.45;2.95;;;3.60;99.90;;;;;;4983733;28;20187;-84
2023/04/04 00:05:58;;;;;;;5.47;2.42;;;3.60;99.90;;;;;;4986837;28;20690;-84
2023/04/04 00:08:27;;;;;;;4.78;2.25;;;3.50;99.90;;;;;;4990057;28;20219;-84
2023/04/04 00:11:05;;;;;;;6.90;3.15;;;3.50;99.90;;;;;;4991715;28;20199;-84
2023/04/04 00:13:39;;;;;;;3.05;2.00;;;3.50;99.90;;;;;;4990132;28;20203;-84
2023/04/04 00:16:05;;;;;;;4.32;2.50;;;3.50;99.90;;;;;;4994808;28;20242;-84
2023/04/04 00:18:34;;;;;;;4.90;2.88;;;3.50;99.90;;;;;;4993433;28;20596;-84
2023/04/04 00:21:02;;;;;;;3.80;2.75;;;3.50;99.90;;;;;;4994687;28;20195;-84
2023/04/04 00:23:28;;;;;;;6.53;2.70;;;3.40;99.90;;;;;;4992833;28;20225;-84
2023/04/04 00:26:25;;;;;;;9.00;2.40;;;3.40;99.90;;;;;;5004512;28;20175;-83
2023/04/04 00:28:51;;;;;;;4.03;2.65;;;3.40;99.90;;;;;;4993475;28;20191;-84
2023/04/04 00:31:20;;;;;;;8.73;2.65;;;3.40;99.90;;;;;;4989563;28;20623;-83
2023/04/04 00:33:51;;;;;;;3.95;2.63;;;3.30;99.90;;;;;;4992371;28;20328;-83
2023/04/04 00:39:48;;;;;;;;;;;;;;;;;;;;;
2023/04/04 00:42:16;;;;;;;6.30;3.00;;;3.20;99.90;;;;;;4992035;28;20187;-84
2023/04/04 00:44:50;;;;;;;5.50;2.67;;;3.20;99.90;;;;;;4993921;28;20204;-84
2023/04/04 00:47:37;;;;;;;7.32;3.17;;;3.20;99.90;;;;;;5000079;28;20198;-85
2023/04/04 00:50:23;;;;;;;2.38;1.98;;;3.20;99.90;;;;;;4995120;28;20214;-84
2023/04/04 00:53:05;;;;;;;4.55;2.70;;;3.20;99.90;;;;;;5002291;28;20188;-84
2023/04/04 00:55:42;;;;;;;5.75;2.67;;;3.10;99.90;;;;;;4999776;28;20199;-84
2023/04/04 00:58:08;;;;;;;5.72;2.58;;;3.10;99.90;;;;;;4992721;28;20667;-84
2023/04/04 01:00:35;;;;;;;9.95;2.90;;;3.10;99.90;;;;;;4994475;28;20188;-83
2023/04/04 01:03:15;;;;;;;4.78;2.70;;;3.10;99.90;;;;;;5009999;28;20195;-84
2023/04/04 01:05:46;;;;;;;8.43;2.90;;;3.00;99.90;;;;;;4993367;28;20192;-84
2023/04/04 01:11:20;;;;;;;6.20;2.97;;;3.00;99.90;;;;;;4992720;28;20334;-84
2023/04/04 01:13:55;;;;;;;4.88;2.13;;;3.00;99.90;;;;;;4988360;28;20207;-84
2023/04/04 01:23:12;;;;;;;6.72;2.80;;;2.90;99.90;;;;;;4996022;28;20218;-84
2023/04/04 01:26:11;;;;;;;8.88;3.50;;;2.80;99.90;;;;;;4991824;28;20659;-84
2023/04/04 01:28:42;;;;;;;5.88;2.33;;;2.90;99.90;;;;;;4993871;28;20191;-83
2023/04/04 01:31:19;;;;;;;6.55;2.30;;;2.80;99.90;;;;;;4996774;28;20243;-84
2023/04/04 01:34:24;;;;;;;8.40;3.30;;;2.80;99.90;;;;;;4996104;28;20203;-84
2023/04/04 01:37:33;;;;;;;6.90;2.80;;;2.80;99.90;;;;;;4997476;28;20223;-85
2023/04/04 01:40:11;;;;;;;4.68;2.90;;;2.80;99.90;;;;;;4990769;28;20190;-84
2023/04/04 01:42:42;;;;;;;6.35;2.83;;;2.80;99.90;;;;;;4985658;28;20191;-84
2023/04/04 01:45:13;;;;;;;6.20;2.83;;;2.80;99.90;;;;;;4996720;28;20632;-84
2023/04/04 01:48:07;;;;;;;4.97;3.05;;;2.80;99.90;;;;;;4993489;28;20730;-84
2023/04/04 01:50:35;;;;;;;6.20;3.25;;;2.70;99.90;;;;;;4985549;28;20276;-84
2023/04/04 01:53:01;;;;;;;9.52;2.97;;;2.70;99.90;;;;;;4994894;28;20655;-82
2023/04/04 01:55:36;;;;;;;6.15;2.67;;;2.70;99.90;;;;;;4988816;28;20192;-84
2023/04/04 01:58:16;;;;;;;9.00;2.95;;;2.70;99.90;;;;;;4993028;28;20860;-84
2023/04/04 02:00:45;;;;;;;11.18;3.13;;;2.70;99.90;;;;;;4995602;28;20195;-84
2023/04/04 02:03:19;;;;;;;4.70;2.63;;;2.70;99.90;;;;;;4988449;28;20266;-84
2023/04/04 02:05:59;;;;;;;7.65;3.35;;;2.70;99.90;;;;;;4991006;28;20187;-84
2023/04/04 02:08:30;;;;;;;6.70;3.03;;;2.70;99.90;;;;;;4992958;28;20601;-83
2023/04/04 02:11:02;;;;;;;5.28;2.90;;;2.60;99.90;;;;;;5009008;28;20250;-84
2023/04/04 02:16:32;;;;;;;6.43;2.80;;;2.60;99.90;;;;;;4962361;28;20204;-84
2023/04/04 02:19:42;;;;;;;5.38;3.20;;;2.50;99.90;;;;;;4959547;28;20220;-83
2023/04/04 02:22:10;;;;;;;5.65;2.25;;;2.50;99.90;;;;;;4976624;28;20719;-84
2023/04/04 02:24:39;;;;;;;7.63;3.63;;;2.50;99.90;;;;;;4954925;28;20227;-84
2023/04/04 02:27:45;;;;;;;9.45;3.35;;;2.50;99.90;;;;;;4957513;28;20189;-84
2023/04/04 02:30:34;;;;;;;9.32;3.05;;;2.50;99.90;;;;;;4958310;28;20553;-84
2023/04/04 02:33:21;;;;;;;8.77;3.20;;;2.50;99.90;;;;;;4958811;28;20176;-84
2023/04/04 02:35:49;;;;;;;9.50;3.30;;;2.50;99.90;;;;;;4894119;28;20192;-84
2023/04/04 02:38:17;;;;;;;6.85;3.35;;;2.40;99.90;;;;;;4956717;28;20189;-84
2023/04/04 02:41:17;;;;;;;10.45;3.15;;;2.40;99.90;;;;;;4956406;28;20180;-84
2023/04/04 02:43:50;;;;;;;11.43;3.35;;;2.40;99.90;;;;;;4954249;28;20208;-84
2023/04/04 02:46:19;;;;;;;6.13;2.80;;;2.40;99.90;;;;;;4974742;28;20199;-84
2023/04/04 02:48:56;;;;;;;6.78;3.05;;;2.30;99.90;;;;;;4957595;28;20196;-84
2023/04/04 02:51:24;;;;;;;8.13;4.03;;;2.30;99.90;;;;;;4958274;28;20203;-84
2023/04/04 02:54:04;;;;;;;4.40;2.85;;;2.30;99.90;;;;;;4955060;28;20212;-84
2023/04/04 02:59:36;;;;;;;6.25;3.35;;;2.20;99.90;;;;;;4973137;28;20188;-83
2023/04/04 03:02:06;;;;;;;9.23;3.58;;;2.20;99.90;;;;;;4954409;28;20183;-84
2023/04/04 03:04:35;;;;;;;6.15;3.20;;;2.20;99.90;;;;;;4954243;28;20213;-83
2023/04/04 03:07:19;;;;;;;4.90;3.40;;;2.20;99.90;;;;;;4954246;28;20185;-84
2023/04/04 03:09:45;;;;;;;12.00;3.08;;;2.20;99.90;;;;;;4951914;28;20184;-83
2023/04/04 03:12:19;;;;;;;3.50;2.73;;;2.10;99.90;;;;;;4955259;28;20180;-83
2023/04/04 03:14:47;;;;;;;5.13;2.90;;;2.10;99.90;;;;;;4956014;28;20474;-83
2023/04/04 03:17:14;;;;;;;7.95;3.28;;;2.10;99.90;;;;;;4955689;28;20246;-84
2023/04/04 03:19:45;;;;;;;4.28;3.10;;;2.10;99.90;;;;;;4953059;28;20198;-82
2023/04/04 03:22:13;;;;;;;5.68;3.35;;;2.10;99.90;;;;;;4954845;28;20188;-84
2023/04/04 03:25:00;;;;;;;7.07;2.95;;;2.00;99.90;;;;;;4953852;28;20207;-84
2023/04/04 03:27:35;;;;;;;5.80;2.95;;;2.00;99.90;;;;;;4952038;28;20303;-83
2023/04/04 03:30:01;;;;;;;9.25;2.60;;;2.00;99.90;;;;;;4952920;28;20208;-83
2023/04/04 03:32:38;;;;;;;3.53;3.00;;;2.00;99.90;;;;;;4954893;28;20541;-83
2023/04/04 03:35:15;;;;;;;6.43;3.08;;;2.00;99.90;;;;;;4952816;28;20295;-84
2023/04/04 03:37:53;;;;;;;5.45;3.78;;;2.00;99.90;;;;;;4954802;28;20195;-83
2023/04/04 03:41:02;;;;;;;8.40;3.22;;;1.90;99.90;;;;;;4970004;28;20275;-83
2023/04/04 03:43:29;;;;;;;3.80;2.88;;;1.90;99.90;;;;;;4977267;28;20237;-83
2023/04/04 03:46:07;;;;;;;4.57;2.72;;;1.90;99.90;;;;;;4949467;28;20184;-83
2023/04/04 03:48:49;;;;;;;5.30;3.42;;;1.90;99.90;;;;;;4955075;28;20188;-84
2023/04/04 03:51:53;;;;;;;6.13;3.35;;;1.90;99.90;;;;;;4969112;28;20208;-83
2023/04/04 03:54:32;;;;;;;5.20;3.70;;;1.80;99.90;;;;;;4954237;28;20277;-84
2023/04/04 03:57:14;;;;;;;11.32;3.72;;;1.80;99.90;;;;;;4951843;28;20383;-83
2023/04/04 03:59:47;;;;;;;6.35;3.50;;;1.80;99.90;;;;;;4952747;28;20192;-83
2023/04/04 04:02:13;;;;;;;9.05;3.95;;;1.70;99.90;;;;;;4986446;28;20687;-84
2023/04/04 04:04:55;;;;;;;6.43;3.87;;;1.70;99.90;;;;;;4951976;28;20208;-83
2023/04/04 04:07:33;;;;;;;7.32;3.30;;;1.70;99.90;;;;;;4950665;28;20439;-84
2023/04/04 04:09:59;;;;;;;18.55;4.88;;;1.70;99.90;;;;;;4967064;28;20281;-84
2023/04/04 04:12:34;;;;;;;7.33;2.57;;;1.70;99.90;;;;;;4954263;28;20737;-84
2023/04/04 04:15:19;;;;;;;;;;;;;;;;;;;;;
2023/04/04 04:17:45;;;;;;;5.03;3.17;;;1.70;99.90;;;;;;4968812;28;20546;-84
2023/04/04 04:20:17;;;;;;;3.90;3.00;;;1.60;99.90;;;;;;4950457;28;20275;-83
2023/04/04 04:22:46;;;;;;;5.47;2.90;;;1.60;99.90;;;;;;4954813;28;20216;-84
2023/04/04 04:25:13;;;;;;;6.95;3.80;;;1.70;99.90;;;;;;4949562;28;20209;-84
2023/04/04 04:27:39;;;;;;;5.10;3.20;;;1.70;99.90;;;;;;4973854;28;20188;-84
2023/04/04 04:30:33;;;;;;;7.35;2.92;;;1.70;99.90;;;;;;4975420;28;20208;-83
2023/04/04 04:32:59;;;;;;;7.35;4.15;;;1.70;99.90;;;;;;4983046;28;20239;-84
2023/04/04 04:35:44;;;;;;;6.80;3.57;;;1.70;99.90;;;;;;4974487;28;20224;-84
2023/04/04 04:38:27;;;;;;;4.65;3.63;;;1.70;99.90;;;;;;4951284;28;21455;-84
2023/04/04 04:40:59;;;;;;;6.55;3.08;;;1.70;99.90;;;;;;4956207;28;20188;-84
2023/04/04 04:43:39;;;;;;;9.07;3.88;;;1.70;99.90;;;;;;4955159;28;20208;-84
2023/04/04 04:46:08;;;;;;;6.00;3.03;;;1.60;99.90;;;;;;4956341;28;20184;-84
2023/04/04 04:48:39;;;;;;;4.30;3.20;;;1.70;99.90;;;;;;4949863;28;20224;-83
2023/04/04 04:51:30;;;;;;;7.75;4.57;;;1.60;99.90;;;;;;4971538;28;20212;-84
2023/04/04 04:54:07;;;;;;;8.68;3.10;;;1.60;99.90;;;;;;4962021;28;20292;-82
2023/04/04 04:56:36;;;;;;;5.13;3.00;;;1.60;99.90;;;;;;4973828;28;20706;-84
2023/04/04 04:59:14;;;;;;;9.63;3.30;;;1.50;99.90;;;;;;4954316;28;20189;-84
2023/04/04 05:01:40;;;;;;;3.80;3.35;;;1.60;99.90;;;;;;4955094;28;20192;-84
2023/04/04 05:04:09;;;;;;;10.90;4.17;;;1.60;99.90;;;;;;4976661;28;20444;-84
2023/04/04 05:06:42;;;;;;;6.00;3.50;;;1.60;99.90;;;;;;4958191;28;20203;-84
2023/04/04 05:09:08;;;;;;;5.53;2.80;;;1.60;99.90;;;;;;4958720;28;20201;-84
2023/04/04 05:11:44;;;;;;;5.70;3.43;;;1.60;99.90;;;;;;4971331;28;20204;-84
2023/04/04 05:14:10;;;;;;;7.38;3.75;;;1.60;99.90;;;;;;4959224;28;20204;-84
2023/04/04 05:16:41;;;;;;;5.23;3.40;;;1.60;99.90;;;;;;4976862;28;20192;-84
2023/04/04 05:19:13;;;;;;;11.82;3.67;;;1.70;99.90;;;;;;4959697;28;20268;-84
2023/04/04 05:21:38;;;;;;;16.60;5.20;;;1.70;99.90;;;;;;4977550;28;20235;-84
2023/04/04 05:24:32;;;;;;;15.30;5.73;;;1.70;99.90;;;;;;4977135;28;20211;-84
2023/04/04 05:26:58;;;;;;;8.73;3.72;;;1.80;99.90;;;;;;4971121;28;20718;-83
2023/04/04 05:29:26;;;;;;;9.70;4.27;;;1.90;99.90;;;;;;4976824;28;20219;-84
2023/04/04 05:32:08;;;;;;;13.43;3.70;;;1.90;99.90;;;;;;4958719;28;20222;-83
2023/04/04 05:34:43;;;;;;;10.68;4.40;;;2.00;99.90;;;;;;4977801;28;20270;-82
2023/04/04 05:37:09;;;;;;;8.57;3.95;;;2.10;99.90;;;;;;4977348;28;20263;-84
2023/04/04 05:39:38;;;;;;;11.90;3.60;;;2.20;99.90;;;;;;4975871;28;20667;-84
2023/04/04 05:42:06;;;;;;;10.63;3.75;;;2.20;99.90;;;;;;4955645;28;20846;-84
2023/04/04 05:44:45;;;;;;;7.32;3.58;;;2.30;99.90;;;;;;4955784;28;20219;-84
2023/04/04 05:47:26;;;;;;;8.88;4.40;;;2.40;99.90;;;;;;4975521;28;20231;-84
2023/04/04 05:50:05;;;;;;;9.00;3.63;;;3.10;99.90;;;;;;4982909;28;20560;-84
2023/04/04 05:52:30;;;;;;;7.47;4.33;;;8.10;99.90;;;;;;4959941;28;20208;-85
2023/04/04 05:55:11;;;;;;;9.20;3.80;;;12.40;99.90;;;;;;4957495;28;20491;-84
2023/04/04 05:57:37;;;;;;;8.17;3.50;;;15.80;99.90;;;;;;4959764;28;20198;-85
2023/04/04 06:00:21;;;;;;;9.67;4.30;;;18.70;99.90;;;;;;4955322;28;20437;-84
2023/04/04 06:02:55;;;;;;;13.70;4.30;;;21.80;99.90;;;;;;4952693;28;20529;-84
2023/04/04 06:05:32;;;;;;;10.00;3.03;;;24.60;99.90;;;;;;4953232;28;20463;-84
2023/04/04 06:07:58;;;;;;;6.50;3.60;;;27.10;99.90;;;;;;4971611;28;20796;-82
2023/04/04 06:10:23;;;;;;;4.37;2.73;;;29.20;99.90;;;;;;4955712;28;20514;-82
2023/04/04 06:12:55;;;;;;;7.67;2.87;;;30.90;99.90;;;;;;4954866;28;20607;-82
2023/04/04 06:15:31;;;;;;;4.43;2.80;;;32.40;99.90;;;;;;4971455;28;20695;-82
2023/04/04 06:18:01;;;;;;;7.13;3.10;;;34.00;99.90;;;;;;4956317;28;20443;-83
2023/04/04 06:20:33;;;;;;;10.57;4.33;;;35.40;99.90;;;;;;4957922;28;20531;-82
2023/04/04 06:23:02;;;;;;;9.80;3.30;;;36.60;99.90;;;;;;4954881;28;20703;-83
2023/04/04 06:25:28;;;;;;;5.73;2.90;;;37.50;99.90;;;;;;4970871;28;20447;-84
2023/04/04 06:27:54;;;;;;;6.60;3.37;;;38.60;99.90;;;;;;4971939;28;20450;-84
2023/04/04 06:30:19;;;;;;;3.97;2.73;;;39.70;99.90;;;;;;4969356;28;20214;-85
2023/04/04 06:32:45;;;;;;;4.60;2.60;;;40.10;99.90;;;;;;4970172;28;20452;-83
2023/04/04 06:35:10;;;;;;;5.20;2.40;;;39.90;99.90;;;;;;4977044;28;20215;-83
2023/04/04 06:37:36;;;;;;;4.57;2.50;;;40.90;99.90;;;;;;4972302;28;20558;-83
2023/04/04 06:40:01;;;;;;;4.17;3.00;;;41.20;99.90;;;;;;4969837;28;20215;-83
2023/04/04 06:42:27;;;;;;;9.33;2.97;;;41.40;99.90;;;;;;4953203;28;20673;-83
2023/04/04 06:44:52;;;;;;;7.50;2.63;;;41.10;99.90;;;;;;4972224;28;20266;-83
2023/04/04 06:47:19;;;;;;;5.60;3.20;;;41.70;99.90;;;;;;4967848;28;20188;-84
2023/04/04 06:49:45;;;;;;;7.23;2.80;;;42.30;99.90;;;;;;4972230;28;20192;-83
2023/04/04 06:52:13;;;;;;;3.60;2.87;;;42.90;99.90;;;;;;4970550;28;20987;-83
2023/04/04 06:54:38;;;;;;;6.17;2.73;;;43.00;99.90;;;;;;4952019;28;20223;-84
2023/04/04 06:57:04;;;;;;;3.00;2.70;;;43.60;99.90;;;;;;4968561;28;20441;-84
2023/04/04 06:59:32;;;;;;;4.63;2.90;;;44.00;99.90;;;;;;4967909;28;20192;-83
2023/04/04 07:02:00;;;;;;;4.50;2.40;;;43.70;99.90;;;;;;4968238;28;20202;-84
2023/04/04 07:04:26;;;;;;;8.33;2.67;;;43.50;99.80;;;;;;4969988;28;20483;-83
2023/04/04 07:06:52;;;;;;;8.60;3.17;;;43.80;98.30;;;;;;4965667;28;20865;-82
2023/04/04 07:09:17;;;;;;;7.60;2.50;;;43.90;96.60;;;;;;4974962;28;20196;-83
2023/04/04 07:11:43;;;;;;;5.93;2.57;;;44.30;95.90;;;;;;4968369;28;20671;-83
2023/04/04 07:14:08;;;;;;;5.60;2.50;;;44.50;94.90;;;;;;4966534;28;20204;-82
2023/04/04 07:16:35;;;;;;;6.10;2.53;;;44.80;94.60;;;;;;4969046;28;20247;-83
2023/04/04 07:19:01;;;;;;;4.07;2.97;;;45.00;92.30;;;;;;4970255;28;20176;-83
2023/04/04 07:21:27;;;;;;;5.67;3.10;;;44.90;90.70;;;;;;4970485;28;20943;-83
2023/04/04 07:23:53;;;;;;;4.93;3.13;;;44.90;88.50;;;;;;4966947;28;20219;-83
2023/04/04 07:26:18;;;;;;;3.73;2.67;;;44.30;84.90;;;;;;4968904;28;20432;-83
2023/04/04 07:28:44;;;;;;;3.83;2.30;;;44.40;83.60;;;;;;4952205;28;20278;-83
2023/04/04 07:31:10;;;;;;;7.27;2.70;;;44.50;81.60;;;;;;4961257;28;20261;-83
2023/04/04 07:33:35;;;;;;;6.07;3.30;;;44.60;80.50;;;;;;4954403;28;20200;-84
2023/04/04 07:36:02;;;;;;;6.90;3.40;;;44.50;77.50;;;;;;4969410;28;20571;-83
2023/04/04 07:38:41;;;;;;;11.60;4.67;;;44.50;76.40;;;;;;4968708;28;20180;-83
2023/04/04 07:41:25;;;;;;;4.33;2.60;;;44.60;73.10;;;;;;4967517;28;20439;-82
2023/04/04 07:43:51;;;;;;;4.90;2.77;;;43.70;69.50;;;;;;4969720;28;20548;-83
2023/04/04 07:46:16;;;;;;;4.63;2.40;;;43.50;68.10;;;;;;4953739;28;20434;-84
2023/04/04 07:49:00;;;;;;;3.60;2.17;;;43.40;66.10;;;;;;4954042;28;20431;-83
2023/04/04 07:51:29;;;;;;;5.37;2.30;;;42.60;62.60;;;;;;4953910;28;20690;-83
2023/04/04 07:54:22;;;;;;;3.07;2.37;;;42.20;61.30;;;;;;4950439;28;20471;-84
2023/04/04 07:59:44;;;;;;;3.07;2.30;;;42.40;59.30;;;;;;4964459;28;20526;-83
2023/04/04 08:02:09;;;;;;;3.47;2.70;;;42.20;58.10;;;;;;4952512;28;20452;-84
2023/04/04 08:04:37;;;;;;;4.83;2.33;;;41.60;56.20;;;;;;4969152;28;20443;-83
2023/04/04 08:07:10;;;;;;;6.13;2.70;;;41.10;55.30;;;;;;4952841;28;20346;-84
2023/04/04 08:09:41;;;;;;;4.50;2.30;;;41.00;70.50;;;;;;4967899;28;20447;-84
2023/04/04 08:12:12;;;;;;;4.20;2.90;;;40.90;54.30;;;;;;4950492;28;21262;-83
2023/04/04 08:14:55;;;;;;;4.73;2.60;;;40.70;53.90;;;;;;4968235;28;20585;-83
2023/04/04 08:17:27;;;;;;;3.33;2.13;;;40.30;52.70;;;;;;4970233;28;20459;-84
2023/04/04 08:19:53;;;;;;;5.70;2.70;;;39.60;50.40;;;;;;4953938;28;20474;-84
2023/04/04 08:22:27;;;;;;;6.20;2.50;;;39.70;51.00;;;;;;4953670;28;20502;-85
2023/04/04 08:25:03;;;;;;;8.07;2.60;;;40.10;52.50;;;;;;4972906;28;20935;-83
2023/04/04 08:27:32;;;;;;;4.97;2.30;;;40.10;50.80;;;;;;4953761;28;20494;-83
2023/04/04 08:30:08;;;;;;;4.67;2.50;;;39.30;49.20;;;;;;4953398;28;22349;-83
2023/04/04 08:32:40;;;;;;;4.90;2.70;;;39.00;48.40;;;;;;4973706;28;20948;-84
2023/04/04 08:35:08;;;;;;;7.33;2.67;;;39.10;48.80;;;;;;4952832;28;20459;-83
2023/04/04 08:37:37;;;;;;;3.30;1.87;;;39.50;49.80;;;;;;4978922;28;20446;-84
2023/04/04 08:40:04;;;;;;;2.93;1.80;;;39.70;50.30;;;;;;4963329;28;20459;-84
2023/04/04 08:42:34;;;;;;;4.40;1.90;;;39.60;49.40;;;;;;4975015;28;20444;-83
2023/04/04 08:45:05;;;;;;;4.93;1.67;;;39.20;47.60;;;;;;4983314;28;20537;-82
2023/04/04 08:47:35;;;;;;;3.30;2.10;;;39.00;47.20;;;;;;4974317;28;20502;-83
2023/04/04 08:50:06;;;;;;;4.87;1.70;;;39.20;47.60;;;;;;4972135;28;20850;-84
2023/04/04 08:52:44;;;;;;;4.13;1.80;;;39.10;47.50;;;;;;4984702;28;20478;-84
2023/04/04 08:55:10;;;;;;;7.93;2.23;;;38.70;46.20;;;;;;4972552;28;20466;-83
2023/04/04 08:57:36;;;;;;;2.50;1.80;;;38.40;44.80;;;;;;4973524;28;20482;-83
2023/04/04 09:00:05;;;;;;;5.80;2.30;;;37.80;43.60;;;;;;4975927;28;20442;-83
2023/04/04 09:02:42;;;;;;;4.13;2.00;;;37.40;42.20;;;;;;4971944;28;20514;-84
2023/04/04 09:05:12;;;;;;;5.23;2.23;;;36.90;40.50;;;;;;4974341;28;20830;-83
2023/04/04 09:07:40;;;;;;;3.77;1.90;;;35.60;37.80;;;;;;4969809;28;20447;-83
2023/04/04 09:10:12;;;;;;;2.90;1.97;;;35.10;36.10;;;;;;4959730;28;20499;-84
2023/04/04 09:12:55;;;;;;;10.00;2.03;;;34.30;35.10;;;;;;4973951;28;20435;-83
2023/04/04 09:15:41;;;;;;;3.80;2.00;;;33.30;32.20;;;;;;4984796;28;20566;-83
2023/04/04 09:18:09;;;;;;;4.90;1.77;;;32.80;32.20;;;;;;4958785;28;20434;-83
2023/04/04 09:20:43;;;;;;;6.63;2.20;;;32.80;32.70;;;;;;4979320;28;20527;-84
2023/04/04 09:23:19;;;;;;;8.10;2.40;;;32.70;31.50;;;;;;4975942;28;20435;-83
2023/04/04 09:25:52;;;;;;;3.03;1.73;;;32.20;30.70;;;;;;4974389;28;20440;-84
2023/04/04 09:28:24;;;;;;;3.53;1.70;;;31.50;29.20;;;;;;4969983;28;20452;-84
2023/04/04 09:30:51;;;;;;;4.37;1.97;;;31.60;30.00;;;;;;4980030;28;20477;-83
2023/04/04 09:33:18;;;;;;;4.03;2.10;;;31.20;29.30;;;;;;4957745;28;20698;-83
2023/04/04 09:35:51;;;;;;;5.20;2.30;;;31.40;43.30;;;;;;4978837;28;20435;-83
2023/04/04 09:38:20;;;;;;;4.17;2.23;;;30.70;28.40;;;;;;4961689;28;20486;-84
2023/04/04 09:40:46;;;;;;;5.00;1.90;;;29.80;27.80;;;;;;4977644;28;20484;-84
2023/04/04 09:43:12;;;;;;;3.10;1.90;;;29.30;27.10;;;;;;4978079;28;20829;-84
2023/04/04 09:45:43;;;;;;;4.77;1.80;;;29.70;28.30;;;;;;4976998;28;20440;-84
2023/04/04 09:48:09;;;;;;;4.50;2.03;;;30.40;30.50;;;;;;4971879;28;20238;-83
2023/04/04 09:50:36;;;;;;;4.63;2.10;;;30.60;31.20;;;;;;4982222;28;20466;-83
2023/04/04 09:53:04;;;;;;;6.60;2.23;;;30.80;32.70;;;;;;4975287;28;20947;-84
2023/04/04 09:55:35;;;;;;;4.13;2.50;;;31.10;33.40;;;;;;4974372;28;20497;-82
2023/04/04 09:58:27;;;;;;;4.90;2.00;;;31.30;34.20;;;;;;4958314;28;20809;-83
2023/04/04 10:00:55;;;;;;;7.33;2.40;;;30.80;32.50;;;;;;4964667;28;20442;-83
2023/04/04 10:03:25;;;;;;;3.23;2.30;;;30.60;33.00;;;;;;4977653;28;20441;-81
2023/04/04 10:06:03;;;;;;;5.00;2.10;;;29.70;30.00;;;;;;4974568;28;20486;-83
2023/04/04 10:08:29;;;;;;;5.03;2.90;;;29.60;30.40;;;;;;4986860;28;20439;-83
2023/04/04 10:11:02;;;;;;;3.70;2.47;;;29.80;30.50;;;;;;4958707;28;20936;-83
2023/04/04 10:13:34;;;;;;;4.23;2.33;;;29.70;29.80;;;;;;4974464;28;20455;-83
2023/04/04 10:16:02;;;;;;;5.43;2.07;;;29.80;31.20;;;;;;4976285;28;20583;-83
2023/04/04 10:18:31;;;;;;;3.97;2.67;;;29.80;31.40;;;;;;4988390;28;20959;-83
2023/04/04 10:21:00;;;;;;;7.93;3.00;;;29.40;31.10;;;;;;4974384;28;21502;-84
2023/04/04 10:23:26;;;;;;;4.03;3.00;;;29.40;30.70;;;;;;4967861;28;20458;-82
2023/04/04 10:25:58;;;;;;;5.10;2.50;;;29.60;32.70;;;;;;4953046;28;20527;-83
2023/04/04 10:28:25;;;;;;;7.43;2.60;;;29.60;31.30;;;;;;4971872;28;20435;-83
2023/04/04 10:31:24;;;;;;;3.80;2.33;;;29.90;32.80;;;;;;4970779;28;21110;-83
2023/04/04 10:34:05;;;;;;;3.53;2.00;;;29.60;32.60;;;;;;4961318;28;20467;-83
2023/04/04 10:36:43;;;;;;;4.93;2.73;;;29.00;30.60;;;;;;4969993;28;20443;-83
2023/04/04 10:39:26;;;;;;;3.93;2.63;;;28.50;29.00;;;;;;4947794;28;20460;-83
2023/04/04 10:41:52;;;;;;;5.00;2.27;;;28.30;29.00;;;;;;4966182;28;20514;-83
2023/04/04 10:44:40;;;;;;;5.63;2.33;;;28.10;28.60;;;;;;4963534;28;20498;-83
2023/04/04 10:47:25;;;;;;;4.90;2.50;;;28.40;30.40;;;;;;4967876;28;20874;-82
2023/04/04 10:49:51;;;;;;;5.20;2.50;;;28.40;29.80;;;;;;4970850;28;20477;-83
2023/04/04 10:52:22;;;;;;;3.10;2.40;;;28.50;31.20;;;;;;4975454;28;20439;-83
2023/04/04 10:54:54;;;;;;;5.50;2.80;;;28.80;31.20;;;;;;4974291;28;20467;-83
2023/04/04 10:57:20;;;;;;;6.27;2.57;;;28.60;31.40;;;;;;4974135;28;20947;-83
2023/04/04 11:00:08;;;;;;;3.80;2.37;;;28.80;31.40;;;;;;4954718;28;20441;-83
2023/04/04 11:02:46;;;;;;;5.57;2.40;;;29.20;32.80;;;;;;4969301;28;20535;-83
2023/04/04 11:05:18;;;;;;;6.17;2.70;;;29.00;32.50;;;;;;4972443;28;20459;-83
2023/04/04 11:07:45;;;;;;;6.50;3.60;;;28.80;32.60;;;;;;4957409;28;21010;-83
2023/04/04 11:10:19;;;;;;;5.03;3.30;;;29.30;34.00;;;;;;4974460;28;20482;-83
2023/04/04 11:12:46;;;;;;;4.87;2.77;;;29.90;35.90;;;;;;4979575;28;20435;-83
2023/04/04 11:15:13;;;;;;;5.30;2.50;;;30.00;35.90;;;;;;4975838;28;21237;-83
2023/04/04 11:17:48;;;;;;;6.27;2.70;;;29.70;34.50;;;;;;4979535;28;20454;-84
2023/04/04 11:20:20;;;;;;;3.50;2.27;;;29.80;35.10;;;;;;4980451;28;20447;-83
2023/04/04 11:22:48;;;;;;;8.60;2.47;;;29.60;35.20;;;;;;4981164;28;20439;-83
2023/04/04 11:25:26;;;;;;;2.97;2.17;;;29.50;34.80;;;;;;4960713;28;20494;-83
2023/04/04 11:27:58;;;;;;;4.17;2.33;;;29.70;35.50;;;;;;4967405;28;20451;-83
2023/04/04 11:30:27;;;;;;;3.83;2.00;;;29.90;35.70;;;;;;4985510;28;20475;-83
2023/04/04 11:33:01;;;;;;;5.50;2.97;;;30.40;37.80;;;;;;4971311;28;20471;-83
2023/04/04 11:35:27;;;;;;;5.93;1.87;;;30.90;39.00;;;;;;4969625;28;20463;-82
2023/04/04 11:37:52;;;;;;;4.60;2.40;;;30.40;37.50;;;;;;4972562;28;20443;-83
2023/04/04 11:40:19;;;;;;;4.00;2.60;;;30.20;37.00;;;;;;4955798;28;20534;-83
2023/04/04 11:42:51;;;;;;;6.77;2.80;;;30.20;36.40;;;;;;4974202;28;20327;-83
2023/04/04 11:45:24;;;;;;;3.30;2.47;;;30.30;37.20;;;;;;4959844;28;20460;-83
2023/04/04 11:47:50;;;;;;;5.90;3.17;;;30.40;37.30;;;;;;4971086;28;20450;-84
2023/04/04 11:50:17;;;;;;;3.13;2.10;;;30.20;38.40;;;;;;4972842;28;20984;-83
2023/04/04 11:52:42;;;;;;;6.03;2.50;;;30.10;37.50;;;;;;4972766;28;20652;-83
2023/04/04 11:55:18;;;;;;;5.43;2.83;;;28.90;32.90;;;;;;4974913;28;20459;-83
2023/04/04 11:57:49;;;;;;;3.87;2.50;;;28.20;31.10;;;;;;4976267;28;20180;-83
2023/04/04 12:00:36;;;;;;;4.97;2.43;;;27.60;29.70;;;;;;4974036;28;20951;-84
2023/04/04 12:03:09;;;;;;;3.43;2.10;;;27.40;30.20;;;;;;4951853;28;20979;-83
2023/04/04 12:05:36;;;;;;;3.30;2.30;;;27.60;31.80;;;;;;4975580;28;20559;-83
2023/04/04 12:08:03;;;;;;;5.60;2.67;;;28.10;32.40;;;;;;4978176;28;20980;-84
2023/04/04 12:10:30;;;;;;;3.47;2.27;;;28.20;32.60;;;;;;4953941;28;20881;-84
2023/04/04 12:12:57;;;;;;;6.97;2.70;;;27.80;31.70;;;;;;4961787;28;20437;-84
2023/04/04 12:15:23;;;;;;;4.60;2.80;;;27.50;30.80;;;;;;4982051;28;20470;-84
2023/04/04 12:17:50;;;;;;;7.03;2.07;;;27.40;30.60;;;;;;4962926;28;20460;-83
2023/04/04 12:20:16;;;;;;;3.63;2.23;;;27.40;30.40;;;;;;4969732;28;20578;-83
2023/04/04 12:22:42;;;;;;;8.40;2.17;;;27.30;30.70;;;;;;4980664;28;20561;-83
2023/04/04 12:25:08;;;;;;;3.27;1.93;;;27.40;31.20;;;;;;4975837;28;20869;-83
2023/04/04 12:28:30;;;;;;;;;;;;;;;;;;;;;
2023/04/04 12:34:41;;;;;;;4.80;2.10;;;26.50;29.10;;;;;;4942196;28;20835;-83
2023/04/04 12:37:51;;;;;;;2.90;2.10;;;26.80;30.50;;;;;;4976948;28;20435;-83
2023/04/04 12:40:36;;;;;;;4.10;2.53;;;26.60;29.50;;;;;;4961145;28;20487;-82
2023/04/04 12:43:09;;;;;;;4.63;3.00;;;25.80;27.60;;;;;;4975098;28;20430;-83
2023/04/04 12:45:42;;;;;;;5.43;2.33;;;25.70;27.80;;;;;;4976755;28;20446;-83
2023/04/04 12:48:16;;;;;;;7.73;2.90;;;25.90;28.80;;;;;;4976324;28;20443;-83
2023/04/04 12:51:07;;;;;;;5.67;2.77;;;25.40;27.20;;;;;;4975502;28;20995;-83
2023/04/04 12:57:02;;;;;;;3.67;2.47;;;24.30;24.60;;;;;;4979041;28;20514;-83
2023/04/04 12:59:57;;;;;;;4.50;3.17;;;24.10;23.90;;;;;;4983620;28;20430;-82
2023/04/04 13:02:37;;;;;;;4.57;3.30;;;24.10;25.40;;;;;;4974054;28;20440;-82
2023/04/04 13:05:24;;;;;;;4.53;3.53;;;24.10;25.10;;;;;;4967687;28;20451;-82
2023/04/04 13:08:07;;;;;;;4.50;2.70;;;23.90;24.70;;;;;;4939777;28;20611;-83
2023/04/04 13:11:12;;;;;;;8.17;3.40;;;24.00;25.30;;;;;;4962378;28;20470;-83
2023/04/04 13:13:47;;;;;;;5.10;3.07;;;24.00;25.50;;;;;;4963537;28;20479;-83
2023/04/04 13:16:31;;;;;;;6.03;3.03;;;24.30;27.20;;;;;;4984134;28;20861;-83
2023/04/04 13:18:57;;;;;;;4.77;3.57;;;23.90;25.60;;;;;;4982608;28;20490;-83
2023/04/04 13:21:23;;;;;;;8.13;4.43;;;23.50;24.70;;;;;;4970156;28;20438;-83
2023/04/04 13:23:54;;;;;;;5.63;3.23;;;23.30;24.30;;;;;;4966045;28;20199;-83
2023/04/04 13:26:28;;;;;;;6.20;2.87;;;23.20;24.60;;;;;;4965386;28;20210;-83
2023/04/04 13:28:54;;;;;;;3.87;3.00;;;23.00;24.10;;;;;;4958726;28;20442;-83
2023/04/04 13:31:20;;;;;;;4.77;2.73;;;23.20;25.60;;;;;;4979233;28;20474;-82
2023/04/04 13:33:45;;;;;;;5.63;3.03;;;23.50;26.80;;;;;;4967315;28;20203;-83
2023/04/04 13:36:12;;;;;;;6.77;3.10;;;23.80;27.80;;;;;;4959713;28;21247;-83
2023/04/04 13:38:38;;;;;;;5.00;2.93;;;24.10;29.10;;;;;;4979253;28;20181;-83
2023/04/04 13:41:04;;;;;;;6.47;3.60;;;23.80;27.60;;;;;;4980656;28;20433;-83
2023/04/04 13:43:29;;;;;;;3.97;2.70;;;23.10;25.50;;;;;;4982200;28;20219;-83
2023/04/04 13:45:55;;;;;;;4.20;3.70;;;22.40;23.70;;;;;;4982574;28;20190;-83
2023/04/04 13:48:20;;;;;;;3.13;2.83;;;21.60;21.60;;;;;;4973565;28;20204;-84
2023/04/04 13:50:50;;;;;;;5.47;3.47;;;21.00;20.10;;;;;;4980498;28;20248;-83
2023/04/04 13:53:18;;;;;;;6.00;3.40;;;20.70;19.10;;;;;;4978685;28;20191;-83